createdAt,value
2023-05-12T00:02:40.258Z,-11201.25
2023-05-12T00:05:46.582Z,-11189.88
2023-05-12T00:08:52.594Z,-11202.38
2023-05-12T00:11:58.630Z,-11189.59
2023-05-12T00:15:07.286Z,-11204.50
2023-05-12T00:18:13.532Z,-11204.78
2023-05-12T00:21:19.942Z,-11199.84
2023-05-12T00:24:26.528Z,-11193.66
2023-05-12T00:27:33.126Z,-11205.47
2023-05-12T00:30:40.829Z,-11192.69
2023-05-12T00:33:47.317Z,-11195.22
2023-05-12T00:36:53.524Z,-11194.50
2023-05-12T00:39:59.652Z,-11199.00
2023-05-12T00:43:05.811Z,-11193.66
2023-05-12T00:46:13.763Z,-11205.63
2023-05-12T00:49:20.279Z,-11201.41
2023-05-12T00:52:26.355Z,-11205.75
2023-05-12T00:55:32.350Z,-11205.75
2023-05-12T00:58:38.257Z,-11208.28
2023-05-12T01:01:46.072Z,-11212.09
2023-05-12T01:04:53.638Z,-11206.03
2023-05-12T01:08:01.913Z,-11207.03
2023-05-12T01:11:07.974Z,-11212.50
2023-05-12T01:14:13.806Z,-11210.53
2023-05-12T01:17:26.715Z,-11208.56
2023-05-12T01:20:34.332Z,-11208.00
2023-05-12T01:23:46.163Z,-11204.22
2023-05-12T01:26:53.776Z,-11207.72
2023-05-12T01:30:02.338Z,-11198.87
2023-05-12T01:33:09.162Z,-11207.88
2023-05-12T01:36:15.373Z,-11207.44
2023-05-12T01:39:21.651Z,-11207.72
2023-05-12T01:42:29.576Z,-11205.75
2023-05-12T01:45:35.608Z,-11208.00
2023-05-12T01:48:41.860Z,-11208.00
2023-05-12T01:51:48.017Z,-11204.06
2023-05-12T01:54:54.158Z,-11205.75
2023-05-12T01:58:01.626Z,-11207.88
2023-05-12T02:01:07.916Z,-11206.31
2023-05-12T02:04:14.034Z,-11195.91
2023-05-12T02:07:20.371Z,-11201.81
2023-05-12T02:10:26.409Z,-11195.34
2023-05-12T02:13:33.963Z,-11203.94
2023-05-12T02:16:40.562Z,-11205.63
2023-05-12T02:19:47.004Z,-11206.31
2023-05-12T02:22:53.142Z,-11202.25
2023-05-12T02:25:59.521Z,-11200.13
2023-05-12T02:29:06.959Z,-11200.97
2023-05-12T02:32:13.202Z,-11204.22
2023-05-12T02:35:19.362Z,-11197.47
2023-05-12T02:38:25.350Z,-11194.78
2023-05-12T02:41:31.102Z,-11189.16
2023-05-12T02:44:38.339Z,-11199.84
2023-05-12T02:47:44.331Z,-11191.00
2023-05-12T02:50:50.410Z,-11192.81
2023-05-12T02:53:56.602Z,-11196.47
2023-05-12T02:57:06.243Z,-11195.91
2023-05-12T03:00:14.821Z,-11190.00
2023-05-12T03:03:21.337Z,-11192.97
2023-05-12T03:06:27.986Z,-11193.38
2023-05-12T03:09:34.335Z,-11193.09
2023-05-12T03:12:40.818Z,-11193.66
2023-05-12T03:15:48.314Z,-11195.78
2023-05-12T03:18:54.753Z,-11187.47
2023-05-12T03:22:00.882Z,-11193.94
2023-05-12T03:25:08.527Z,-11187.19
2023-05-12T03:28:14.839Z,-11193.53
2023-05-12T03:31:23.120Z,-11189.16
2023-05-12T03:34:29.434Z,-11192.53
2023-05-12T03:37:35.683Z,-11184.09
2023-05-12T03:40:41.784Z,-11192.81
2023-05-12T03:43:47.812Z,-11190.44
2023-05-12T03:46:55.527Z,-11190.84
2023-05-12T03:50:01.742Z,-11194.50
2023-05-12T03:53:07.966Z,-11200.41
2023-05-12T03:56:14.014Z,-11195.06
2023-05-12T03:59:20.274Z,-11202.53
2023-05-12T04:02:28.206Z,-11199.00
2023-05-12T04:05:34.607Z,-11190.00
2023-05-12T04:08:41.957Z,-11186.34
2023-05-12T04:11:48.458Z,-11191.28
2023-05-12T04:14:54.768Z,-11182.56
2023-05-12T04:18:02.475Z,-11186.34
2023-05-12T04:21:08.557Z,-11192.53
2023-05-12T04:24:14.968Z,-11197.88
2023-05-12T04:27:21.340Z,-11197.47
2023-05-12T04:30:27.359Z,-11184.53
2023-05-12T04:33:34.824Z,-11206.47
2023-05-12T04:36:40.688Z,-11202.66
2023-05-12T04:39:46.782Z,-11194.66
2023-05-12T04:42:52.576Z,-11189.03
2023-05-12T04:46:00.210Z,-11192.25
2023-05-12T04:49:08.084Z,-11185.50
2023-05-12T04:52:14.290Z,-11193.81
2023-05-12T04:55:20.732Z,-11184.53
2023-05-12T04:58:26.984Z,-11195.63
2023-05-12T05:01:33.212Z,-11182.41
2023-05-12T05:04:40.780Z,-11182.13
2023-05-12T05:07:47.310Z,-11192.25
2023-05-12T05:10:53.533Z,-11198.59
2023-05-12T05:13:59.846Z,-11206.31
2023-05-12T05:17:08.022Z,-11206.59
2023-05-12T05:20:16.115Z,-11184.66
2023-05-12T05:23:22.972Z,-11202.66
2023-05-12T05:26:29.163Z,-11191.13
2023-05-12T05:29:35.240Z,-11200.56
2023-05-12T05:32:41.330Z,-11211.38
2023-05-12T05:35:49.235Z,-11225.31
2023-05-12T05:38:55.342Z,-11225.16
2023-05-12T05:42:01.637Z,-11223.75
2023-05-12T05:45:09.283Z,-11216.16
2023-05-12T05:48:15.274Z,-11226.84
2023-05-12T05:51:22.705Z,-11228.25
2023-05-12T05:54:28.937Z,-11220.25
2023-05-12T05:57:35.062Z,-11221.22
2023-05-12T06:00:41.237Z,-11232.19
2023-05-12T06:03:47.655Z,-11233.19
2023-05-12T06:06:55.425Z,-11240.34
2023-05-12T06:10:01.742Z,-11234.75
2023-05-12T06:13:08.501Z,-11232.34
2023-05-12T06:16:14.774Z,-11227.56
2023-05-12T06:19:21.082Z,-11223.34
2023-05-12T06:22:28.725Z,-11229.37
2023-05-12T06:25:34.712Z,-11245.28
2023-05-12T06:28:41.391Z,-11240.63
2023-05-12T06:31:47.982Z,-11228.69
2023-05-12T06:34:54.168Z,-11239.50
2023-05-12T06:38:01.701Z,-11236.16
2023-05-12T06:41:08.046Z,-11252.19
2023-05-12T06:44:13.900Z,-11240.34
2023-05-12T06:47:19.893Z,-11241.47
2023-05-12T06:50:26.259Z,-11228.25
2023-05-12T06:53:37.655Z,-11229.94
2023-05-12T06:56:43.788Z,-11220.25
2023-05-12T06:59:49.857Z,-11242.59
2023-05-12T07:02:56.379Z,-11245.16
2023-05-12T07:06:02.735Z,-11240.63
2023-05-12T07:09:10.128Z,-11240.63
2023-05-12T07:12:16.416Z,-11246.28
2023-05-12T07:15:22.952Z,-11245.16
2023-05-12T07:18:29.597Z,-11241.63
2023-05-12T07:21:36.480Z,-11222.78
2023-05-12T07:24:44.387Z,-11243.31
2023-05-12T07:27:51.077Z,-11248.09
2023-05-12T07:30:57.762Z,-11254.00
2023-05-12T07:34:04.366Z,-11246.84
2023-05-12T07:37:10.534Z,-11234.88
2023-05-12T07:40:18.394Z,-11246.41
2023-05-12T07:43:24.690Z,-11226.00
2023-05-12T07:46:30.633Z,-11246.28
2023-05-12T07:49:36.762Z,-11252.75
2023-05-12T07:52:48.360Z,-11247.69
2023-05-12T07:55:56.015Z,-11248.25
2023-05-12T07:59:02.363Z,-11255.41
2023-05-12T08:02:08.346Z,-11252.47
2023-05-12T08:05:14.801Z,-11265.69
2023-05-12T08:08:20.942Z,-11250.50
2023-05-12T08:11:28.753Z,-11268.22
2023-05-12T08:14:35.033Z,-11276.66
2023-05-12T08:17:41.342Z,-11271.47
2023-05-12T08:20:47.510Z,-11254.16
2023-05-12T08:23:53.542Z,-11274.69
2023-05-12T08:27:01.395Z,-11278.63
2023-05-12T08:30:08.705Z,-11260.47
2023-05-12T08:33:33.116Z,-11258.09
2023-05-12T08:36:39.694Z,-11270.19
2023-05-12T08:39:46.132Z,-11273.00
2023-05-12T08:43:02.076Z,-11272.44
2023-05-12T08:46:08.600Z,-11283.56
2023-05-12T08:49:18.568Z,-11293.97
2023-05-12T08:52:26.026Z,-11289.63
2023-05-12T08:55:34.337Z,-11296.38
2023-05-12T08:58:45.024Z,-11314.69
2023-05-12T09:01:51.928Z,-11311.56
2023-05-12T09:04:58.181Z,-11302.84
2023-05-12T09:08:04.702Z,-11308.75
2023-05-12T09:11:13.565Z,-11273.28
2023-05-12T09:14:25.686Z,-11304.25
2023-05-12T09:17:31.799Z,-11306.78
2023-05-12T09:20:38.049Z,-11328.75
2023-05-12T09:23:54.070Z,-11313.69
2023-05-12T09:27:00.777Z,-11318.75
2023-05-12T09:30:10.013Z,-11325.09
2023-05-12T09:33:16.330Z,-11334.53
2023-05-12T09:36:23.637Z,-11334.81
2023-05-12T09:39:30.190Z,-11316.94
2023-05-12T09:42:37.307Z,-11330.44
2023-05-12T09:45:47.688Z,-11341.72
2023-05-12T09:48:57.476Z,-11323.81
2023-05-12T09:52:06.138Z,-11336.22
2023-05-12T09:55:13.858Z,-11315.81
2023-05-12T09:58:21.857Z,-11329.31
2023-05-12T10:01:29.650Z,-11334.38
2023-05-12T10:04:40.392Z,-11327.91
2023-05-12T10:07:49.107Z,-11320.88
2023-05-12T10:10:57.600Z,-11348.75
2023-05-12T10:14:04.016Z,-11340.16
2023-05-12T10:17:12.608Z,-11353.69
2023-05-12T10:20:19.618Z,-11320.03
2023-05-12T10:23:26.881Z,-11332.69
2023-05-12T10:26:35.139Z,-11342.84
2023-05-12T10:29:42.027Z,-11326.78
2023-05-12T10:32:49.850Z,-11333.28
2023-05-12T10:35:56.069Z,-11333.84
2023-05-12T10:39:07.002Z,-11339.87
2023-05-12T10:42:12.829Z,-11332.28
2023-05-12T10:45:20.568Z,-11348.75
2023-05-12T10:48:28.008Z,-11356.66
2023-05-12T10:51:35.695Z,-11368.19
2023-05-12T10:54:44.692Z,-11351.56
2023-05-12T10:57:53.717Z,-11347.34
2023-05-12T11:01:07.189Z,-11355.09
2023-05-12T11:04:17.347Z,-11356.50
2023-05-12T11:07:26.744Z,-11326.78
2023-05-12T11:10:33.776Z,-11360.03
2023-05-12T11:13:40.441Z,-11355.09
2023-05-12T11:16:46.916Z,-11385.66
2023-05-12T11:19:55.233Z,-11383.97
2023-05-12T11:23:01.466Z,-11383.56
2023-05-12T11:26:07.502Z,-11382.00
2023-05-12T11:29:14.065Z,-11382.28
2023-05-12T11:32:20.179Z,-11336.66
2023-05-12T11:35:32.011Z,-11356.38
2023-05-12T11:38:38.066Z,-11368.34
2023-05-12T11:41:44.610Z,-11385.81
2023-05-12T11:44:51.529Z,-11345.81
2023-05-12T11:48:08.873Z,-11385.09
2023-05-12T11:51:17.568Z,-11372.44
2023-05-12T11:54:25.232Z,-11370.16
2023-05-12T11:57:33.543Z,-11343.69
2023-05-12T12:00:39.762Z,-11336.22
2023-05-12T12:03:48.727Z,-11351.72
2023-05-12T12:06:56.824Z,-11359.03
2023-05-12T12:10:13.117Z,-11359.03
2023-05-12T12:13:22.048Z,-11356.94
2023-05-12T12:16:28.859Z,-11349.59
2023-05-12T12:19:35.285Z,-11355.09
2023-05-12T12:22:43.057Z,-11360.16
2023-05-12T12:25:48.763Z,-11369.31
2023-05-12T12:28:55.040Z,-11353.69
2023-05-12T12:32:01.262Z,-11343.13
2023-05-12T12:35:09.032Z,-11349.19
2023-05-12T12:38:16.616Z,-11349.31
2023-05-12T12:41:22.716Z,-11363.81
2023-05-12T12:44:29.276Z,-11332.41
2023-05-12T12:47:35.783Z,-11357.50
2023-05-12T12:50:41.996Z,-11363.13
2023-05-12T12:53:49.449Z,-11365.38
2023-05-12T12:56:56.777Z,-11369.75
2023-05-12T13:00:02.628Z,-11361.56
2023-05-12T13:03:09.210Z,-11363.25
2023-05-12T13:06:15.295Z,-11362.28
2023-05-12T13:09:25.829Z,-11360.03
2023-05-12T13:12:32.668Z,-11347.34
2023-05-12T13:15:38.902Z,-11355.78
2023-05-12T13:18:46.012Z,-11366.22
2023-05-12T13:21:52.421Z,-11359.87
2023-05-12T13:24:59.878Z,-11365.25
2023-05-12T13:28:06.335Z,-11374.69
2023-05-12T13:31:12.468Z,-11370.72
2023-05-12T13:34:18.539Z,-11364.25
2023-05-12T13:37:24.951Z,-11362.84
2023-05-12T13:40:32.825Z,-11369.31
2023-05-12T13:43:38.920Z,-11362.00
2023-05-12T13:46:45.165Z,-11351.00
2023-05-12T13:49:51.280Z,-11346.22
2023-05-12T13:52:57.622Z,-11359.19
2023-05-12T13:56:04.935Z,-11349.59
2023-05-12T13:59:11.128Z,-11327.63
2023-05-12T14:02:17.601Z,-11334.09
2023-05-12T14:05:24.072Z,-11359.19
2023-05-12T14:08:30.338Z,-11379.91
2023-05-12T14:11:37.585Z,-11388.34
2023-05-12T14:14:49.665Z,-11433.59
2023-05-12T14:17:55.927Z,-11397.78
2023-05-12T14:21:02.539Z,-11413.84
2023-05-12T14:24:10.204Z,-11419.91
2023-05-12T14:27:17.886Z,-11422.16
2023-05-12T14:30:24.644Z,-11441.19
2023-05-12T14:33:31.756Z,-11444.59
2023-05-12T14:36:37.958Z,-11431.47
2023-05-12T14:39:43.945Z,-11456.56
2023-05-12T14:42:51.328Z,-11449.66
2023-05-12T14:45:57.791Z,-11435.13
2023-05-12T14:49:10.645Z,-11443.03
2023-05-12T14:52:17.152Z,-11417.66
2023-05-12T14:55:23.702Z,-11410.06
2023-05-12T14:58:31.618Z,-11394.69
2023-05-12T15:01:37.821Z,-11386.50
2023-05-12T15:04:43.818Z,-11389.03
2023-05-12T15:07:49.864Z,-11447.97
2023-05-12T15:10:55.679Z,-11395.25
2023-05-12T15:14:04.358Z,-11375.94
2023-05-12T15:17:10.572Z,-11370.03
2023-05-12T15:20:17.666Z,-11367.06
2023-05-12T15:23:23.515Z,-11373.56
2023-05-12T15:26:33.980Z,-11380.88
2023-05-12T15:29:42.591Z,-11375.38
2023-05-12T15:32:48.912Z,-11366.22
2023-05-12T15:35:54.792Z,-11365.38
2023-05-12T15:39:00.867Z,-11354.66
2023-05-12T15:42:07.549Z,-11362.41
2023-05-12T15:45:15.232Z,-11357.22
2023-05-12T15:48:21.884Z,-11349.31
2023-05-12T15:51:28.504Z,-11354.94
2023-05-12T15:54:34.555Z,-11348.19
2023-05-12T15:57:40.707Z,-11343.69
2023-05-12T16:00:48.322Z,-11344.53
2023-05-12T16:03:55.574Z,-11333.28
2023-05-12T16:07:01.791Z,-11330.16
2023-05-12T16:10:08.781Z,-11336.22
2023-05-12T16:13:15.041Z,-11330.44
2023-05-12T16:16:22.853Z,-11334.09
2023-05-12T16:19:28.940Z,-11320.59
2023-05-12T16:22:35.030Z,-11315.53
2023-05-12T16:25:42.151Z,-11320.88
2023-05-12T16:28:48.167Z,-11322.56
2023-05-12T16:31:55.928Z,-11321.72
2023-05-12T16:35:01.904Z,-11325.94
2023-05-12T16:38:08.345Z,-11316.66
2023-05-12T16:41:14.349Z,-11307.63
2023-05-12T16:44:20.582Z,-11304.81
2023-05-12T16:47:29.685Z,-11311.16
2023-05-12T16:50:35.738Z,-11306.94
2023-05-12T16:53:42.180Z,-11299.34
2023-05-12T16:56:48.492Z,-11294.81
2023-05-12T16:59:54.573Z,-11299.63
2023-05-12T17:03:03.801Z,-11299.47
2023-05-12T17:06:11.388Z,-11289.06
2023-05-12T17:09:18.113Z,-11290.03
2023-05-12T17:12:24.111Z,-11281.72
2023-05-12T17:15:30.099Z,-11284.69
2023-05-12T17:21:46.729Z,-11289.06
2023-05-12T17:24:52.895Z,-11290.31
2023-05-12T17:27:59.411Z,-11291.59
2023-05-12T17:31:05.912Z,-11286.78
2023-05-12T17:34:13.598Z,-11282.44
2023-05-12T17:37:19.859Z,-11281.44
2023-05-12T17:40:26.178Z,-11279.47
2023-05-12T17:43:32.279Z,-11275.53
2023-05-12T17:46:38.508Z,-11275.81
2023-05-12T17:49:46.683Z,-11273.28
2023-05-12T17:52:54.999Z,-11281.03
2023-05-12T17:56:01.591Z,-11267.81
2023-05-12T17:59:07.641Z,-11267.38
2023-05-12T18:02:14.515Z,-11268.50
2023-05-12T18:05:22.787Z,-11269.91
2023-05-12T18:08:29.313Z,-11261.47
2023-05-12T18:11:35.470Z,-11265.00
2023-05-12T18:14:41.828Z,-11266.25
2023-05-12T18:17:48.361Z,-11263.88
2023-05-12T18:20:56.189Z,-11254.44
2023-05-12T18:24:03.339Z,-11250.22
2023-05-12T18:27:09.435Z,-11245.28
2023-05-12T18:30:16.388Z,-11259.50
2023-05-12T18:33:22.673Z,-11259.22
2023-05-12T18:36:30.961Z,-11257.09
2023-05-12T18:39:37.463Z,-11254.84
2023-05-12T18:42:43.896Z,-11258.38
2023-05-12T18:45:50.379Z,-11251.91
2023-05-12T18:48:56.555Z,-11248.66
2023-05-12T18:52:04.343Z,-11242.59
2023-05-12T18:55:10.960Z,-11238.25
2023-05-12T18:58:17.676Z,-11247.81
2023-05-12T19:01:24.395Z,-11255.00
2023-05-12T19:04:30.543Z,-11247.13
2023-05-12T19:07:37.962Z,-11245.72
2023-05-12T19:10:44.312Z,-11251.63
2023-05-12T19:13:50.874Z,-11262.88
2023-05-12T19:16:57.234Z,-11244.88
2023-05-12T19:20:03.551Z,-11254.84
2023-05-12T19:23:11.142Z,-11248.09
2023-05-12T19:26:17.260Z,-11252.88
2023-05-12T19:29:23.860Z,-11246.00
2023-05-12T19:32:30.417Z,-11245.00
2023-05-12T19:35:36.978Z,-11251.91
2023-05-12T19:38:44.738Z,-11252.75
2023-05-12T19:41:51.782Z,-11237.97
2023-05-12T19:44:58.925Z,-11248.81
2023-05-12T19:48:05.353Z,-11250.78
2023-05-12T19:51:11.857Z,-11240.06
2023-05-12T19:54:19.396Z,-11251.91
2023-05-12T19:57:25.738Z,-11243.88
2023-05-12T20:00:31.784Z,-11240.22
2023-05-12T20:03:37.959Z,-11244.44
2023-05-12T20:06:44.425Z,-11250.91
2023-05-12T20:09:52.013Z,-11246.41
2023-05-12T20:12:58.153Z,-11243.59
2023-05-12T20:16:04.347Z,-11236.00
2023-05-12T20:19:10.906Z,-11231.63
2023-05-12T20:22:17.658Z,-11239.22
2023-05-12T20:25:27.149Z,-11243.03
2023-05-12T20:28:33.367Z,-11242.31
2023-05-12T20:31:39.561Z,-11243.75
2023-05-12T20:34:45.830Z,-11241.91
2023-05-12T20:37:52.155Z,-11236.16
2023-05-12T20:41:05.132Z,-11235.31
2023-05-12T20:44:11.724Z,-11239.22
2023-05-12T20:47:17.765Z,-11235.31
2023-05-12T20:50:23.931Z,-11240.22
2023-05-12T20:53:30.784Z,-11238.66
2023-05-12T20:56:38.482Z,-11233.31
2023-05-12T20:59:45.473Z,-11236.56
2023-05-12T21:02:52.618Z,-11247.13
2023-05-12T21:05:59.142Z,-11231.63
2023-05-12T21:09:05.475Z,-11245.16
2023-05-12T21:12:13.164Z,-11225.31
2023-05-12T21:15:19.578Z,-11234.31
2023-05-12T21:18:25.753Z,-11246.56
2023-05-12T21:21:31.805Z,-11239.22
2023-05-12T21:24:39.533Z,-11235.03
2023-05-12T21:27:47.559Z,-11232.47
2023-05-12T21:30:53.652Z,-11230.78
2023-05-12T21:33:59.900Z,-11238.94
2023-05-12T21:37:06.485Z,-11238.53
2023-05-12T21:40:13.468Z,-11243.31
2023-05-12T21:43:21.153Z,-11230.66
2023-05-12T21:46:27.474Z,-11232.75
2023-05-12T21:49:33.394Z,-11226.00
2023-05-12T21:52:40.394Z,-11228.53
2023-05-12T21:55:46.658Z,-11241.47
2023-05-12T21:58:54.346Z,-11240.78
2023-05-12T22:02:00.728Z,-11232.63
2023-05-12T22:05:08.211Z,-11228.53
2023-05-12T22:08:14.870Z,-11233.31
2023-05-12T22:11:21.397Z,-11225.72
2023-05-12T22:14:29.233Z,-11229.37
2023-05-12T22:17:35.980Z,-11239.94
2023-05-12T22:20:42.596Z,-11224.19
2023-05-12T22:23:49.137Z,-11231.34
2023-05-12T22:26:55.405Z,-11238.09
2023-05-12T22:30:03.073Z,-11237.00
2023-05-12T22:33:09.563Z,-11231.34
2023-05-12T22:36:16.710Z,-11223.06
2023-05-12T22:39:22.545Z,-11231.91
2023-05-12T22:42:28.714Z,-11231.91
2023-05-12T22:45:36.284Z,-11224.59
2023-05-12T22:48:42.648Z,-11222.91
2023-05-12T22:51:48.874Z,-11231.63
2023-05-12T22:54:55.124Z,-11232.34
2023-05-12T22:58:01.590Z,-11233.88
2023-05-12T23:01:09.311Z,-11232.19
2023-05-12T23:04:15.509Z,-11228.13
2023-05-12T23:07:21.690Z,-11235.59
2023-05-12T23:10:27.613Z,-11227.84
2023-05-12T23:13:34.155Z,-11231.78
2023-05-12T23:16:41.652Z,-11223.47
2023-05-12T23:19:48.186Z,-11228.25
2023-05-12T23:22:54.355Z,-11223.75
2023-05-12T23:26:00.552Z,-11222.34
2023-05-12T23:29:06.652Z,-11220.38
2023-05-12T23:32:14.393Z,-11232.91
2023-05-12T23:35:20.471Z,-11231.91
2023-05-12T23:38:26.343Z,-11224.88
2023-05-12T23:41:34.115Z,-11230.09
2023-05-12T23:44:40.297Z,-11229.25
2023-05-12T23:47:49.998Z,-11233.88
2023-05-12T23:50:56.308Z,-11232.75
2023-05-12T23:54:02.394Z,-11233.75
2023-05-12T23:57:08.454Z,-11235.03
